createdAt,value
2023-01-26T00:00:15.609Z,0.00
2023-01-26T00:01:14.082Z,0.00
2023-01-26T00:02:14.044Z,0.00
2023-01-26T00:03:14.035Z,0.00
2023-01-26T00:04:14.085Z,0.00
2023-01-26T00:05:14.021Z,0.00
2023-01-26T00:06:14.012Z,0.00
2023-01-26T00:07:13.996Z,0.00
2023-01-26T00:08:13.976Z,0.00
2023-01-26T00:09:13.971Z,0.00
2023-01-26T00:10:13.958Z,0.00
2023-01-26T00:11:13.959Z,0.00
2023-01-26T00:12:13.934Z,0.00
2023-01-26T00:13:13.929Z,0.00
2023-01-26T00:14:13.917Z,0.00
2023-01-26T00:15:13.910Z,0.00
2023-01-26T00:16:13.973Z,0.00
2023-01-26T00:17:13.907Z,0.00
2023-01-26T00:18:13.878Z,0.00
2023-01-26T00:19:13.870Z,0.00
2023-01-26T00:20:13.983Z,0.00
2023-01-26T00:21:13.846Z,0.00
2023-01-26T00:22:13.931Z,0.00
2023-01-26T00:23:13.821Z,0.00
2023-01-26T00:24:13.842Z,0.00
2023-01-26T00:25:13.802Z,0.00
2023-01-26T00:26:13.793Z,0.00
2023-01-26T00:27:13.795Z,0.00
2023-01-26T00:28:13.768Z,0.00
2023-01-26T00:29:13.761Z,0.00
2023-01-26T00:30:13.997Z,0.00
2023-01-26T00:31:13.806Z,0.00
2023-01-26T00:32:13.727Z,0.00
2023-01-26T00:33:13.739Z,0.00
2023-01-26T00:34:13.709Z,0.00
2023-01-26T00:35:13.697Z,0.00
2023-01-26T00:36:13.696Z,0.00
2023-01-26T00:37:13.679Z,0.00
2023-01-26T00:38:13.669Z,0.00
2023-01-26T00:39:13.655Z,0.00
2023-01-26T00:40:13.836Z,0.00
2023-01-26T00:41:13.635Z,0.00
2023-01-26T00:42:13.624Z,0.00
2023-01-26T00:43:13.631Z,0.00
2023-01-26T00:44:13.609Z,0.00
2023-01-26T00:45:13.597Z,0.00
2023-01-26T00:46:13.580Z,0.00
2023-01-26T00:47:13.576Z,0.00
2023-01-26T00:48:13.573Z,0.00
2023-01-26T00:49:13.585Z,0.00
2023-01-26T00:50:13.920Z,0.00
2023-01-26T00:51:13.534Z,0.00
2023-01-26T00:52:13.521Z,0.00
2023-01-26T00:53:13.510Z,0.00
2023-01-26T00:54:13.501Z,0.00
2023-01-26T00:55:13.491Z,0.00
2023-01-26T00:56:13.478Z,0.00
2023-01-26T00:57:13.469Z,0.00
2023-01-26T00:58:13.456Z,0.00
2023-01-26T00:59:13.446Z,0.00
2023-01-26T01:00:13.794Z,0.00
2023-01-26T01:01:13.486Z,0.00
2023-01-26T01:02:13.510Z,0.00
2023-01-26T01:03:13.408Z,0.00
2023-01-26T01:04:13.394Z,0.00
2023-01-26T01:05:13.411Z,0.00
2023-01-26T01:06:13.376Z,0.00
2023-01-26T01:07:13.366Z,0.00
2023-01-26T01:08:13.359Z,0.00
2023-01-26T01:09:13.345Z,0.00
2023-01-26T01:10:13.657Z,0.00
2023-01-26T01:11:13.330Z,0.00
2023-01-26T01:12:13.318Z,0.00
2023-01-26T01:13:13.300Z,0.00
2023-01-26T01:14:13.296Z,0.00
2023-01-26T01:15:13.281Z,0.00
2023-01-26T01:16:13.347Z,0.00
2023-01-26T01:17:13.262Z,0.00
2023-01-26T01:18:13.256Z,0.00
2023-01-26T01:19:13.243Z,0.00
2023-01-26T01:20:13.540Z,0.00
2023-01-26T01:21:13.244Z,0.00
2023-01-26T01:22:13.214Z,0.00
2023-01-26T01:23:13.206Z,0.00
2023-01-26T01:24:13.287Z,0.00
2023-01-26T01:25:13.180Z,0.00
2023-01-26T01:26:13.170Z,0.00
2023-01-26T01:27:13.159Z,0.00
2023-01-26T01:28:13.144Z,0.00
2023-01-26T01:29:13.142Z,0.00
2023-01-26T01:30:13.538Z,0.00
2023-01-26T01:31:13.315Z,0.00
2023-01-26T01:32:13.103Z,0.00
2023-01-26T01:33:13.093Z,0.00
2023-01-26T01:34:13.083Z,0.00
2023-01-26T01:35:13.083Z,0.00
2023-01-26T01:36:13.068Z,0.00
2023-01-26T01:37:13.081Z,0.00
2023-01-26T01:38:13.042Z,0.00
2023-01-26T01:39:13.032Z,0.00
2023-01-26T01:40:13.227Z,0.00
2023-01-26T01:41:13.020Z,0.00
2023-01-26T01:42:13.001Z,0.00
2023-01-26T01:43:12.997Z,0.00
2023-01-26T01:44:12.990Z,0.00
2023-01-26T01:45:12.968Z,0.00
2023-01-26T01:46:13.027Z,0.00
2023-01-26T01:47:12.955Z,0.00
2023-01-26T01:48:12.943Z,0.00
2023-01-26T01:49:12.926Z,0.00
2023-01-26T01:50:12.980Z,0.00
2023-01-26T01:51:12.910Z,0.00
2023-01-26T01:52:12.901Z,0.00
2023-01-26T01:53:12.922Z,0.00
2023-01-26T01:54:12.876Z,0.00
2023-01-26T01:55:12.878Z,0.00
2023-01-26T01:56:12.855Z,0.00
2023-01-26T01:57:12.844Z,0.00
2023-01-26T01:58:12.839Z,0.00
2023-01-26T01:59:12.839Z,0.00
2023-01-26T02:00:13.149Z,0.00
2023-01-26T02:01:13.415Z,0.00
2023-01-26T02:02:12.895Z,0.00
2023-01-26T02:03:12.792Z,0.00
2023-01-26T02:04:12.775Z,0.00
2023-01-26T02:05:12.763Z,0.00
2023-01-26T02:06:12.757Z,0.00
2023-01-26T02:07:12.741Z,0.00
2023-01-26T02:08:12.734Z,0.00
2023-01-26T02:09:12.749Z,0.00
2023-01-26T02:10:13.058Z,0.00
2023-01-26T02:11:12.699Z,0.00
2023-01-26T02:12:12.692Z,0.00
2023-01-26T02:13:12.682Z,0.00
2023-01-26T02:14:12.668Z,0.00
2023-01-26T02:15:12.667Z,0.00
2023-01-26T02:16:12.654Z,0.00
2023-01-26T02:17:12.640Z,0.00
2023-01-26T02:18:12.631Z,0.00
2023-01-26T02:19:12.621Z,0.00
2023-01-26T02:20:12.947Z,0.00
2023-01-26T02:21:12.596Z,0.00
2023-01-26T02:22:12.594Z,0.00
2023-01-26T02:23:12.575Z,0.00
2023-01-26T02:24:12.618Z,0.00
2023-01-26T02:25:12.582Z,0.00
2023-01-26T02:26:12.552Z,0.00
2023-01-26T02:27:12.534Z,0.00
2023-01-26T02:28:12.527Z,0.00
2023-01-26T02:29:12.517Z,0.00
2023-01-26T02:30:12.712Z,0.00
2023-01-26T02:31:12.620Z,0.00
2023-01-26T02:32:12.481Z,0.00
2023-01-26T02:33:12.475Z,0.00
2023-01-26T02:34:12.464Z,0.00
2023-01-26T02:35:12.454Z,0.00
2023-01-26T02:36:12.440Z,0.00
2023-01-26T02:37:12.431Z,0.00
2023-01-26T02:38:12.422Z,0.00
2023-01-26T02:39:12.419Z,0.00
2023-01-26T02:40:12.727Z,0.00
2023-01-26T02:41:12.410Z,0.00
2023-01-26T02:42:12.383Z,0.00
2023-01-26T02:43:12.375Z,0.00
2023-01-26T02:44:12.358Z,0.00
2023-01-26T02:45:12.355Z,0.00
2023-01-26T02:46:12.410Z,0.00
2023-01-26T02:47:12.330Z,0.00
2023-01-26T02:48:12.320Z,0.00
2023-01-26T02:49:12.310Z,0.00
2023-01-26T02:50:12.656Z,0.00
2023-01-26T02:51:12.292Z,0.00
2023-01-26T02:52:12.280Z,0.00
2023-01-26T02:53:12.265Z,0.00
2023-01-26T02:54:12.258Z,0.00
2023-01-26T02:55:12.245Z,0.00
2023-01-26T02:56:12.240Z,0.00
2023-01-26T02:57:12.254Z,0.00
2023-01-26T02:58:12.217Z,0.00
2023-01-26T02:59:12.213Z,0.00
2023-01-26T03:00:12.472Z,0.00
2023-01-26T03:01:12.283Z,0.00
2023-01-26T03:02:12.245Z,0.00
2023-01-26T03:03:12.189Z,0.00
2023-01-26T03:04:12.156Z,0.00
2023-01-26T03:05:12.157Z,0.00
2023-01-26T03:06:12.260Z,0.00
2023-01-26T03:07:12.275Z,0.00
2023-01-26T03:08:12.113Z,0.00
2023-01-26T03:09:12.103Z,0.00
2023-01-26T03:10:12.452Z,0.00
2023-01-26T03:11:12.081Z,0.00
2023-01-26T03:12:12.073Z,0.00
2023-01-26T03:13:12.092Z,0.00
2023-01-26T03:14:12.156Z,0.00
2023-01-26T03:15:12.040Z,0.00
2023-01-26T03:16:12.180Z,0.00
2023-01-26T03:17:12.021Z,0.00
2023-01-26T03:18:12.011Z,0.00
2023-01-26T03:19:12.153Z,0.00
2023-01-26T03:20:12.367Z,0.00
2023-01-26T03:21:12.083Z,0.00
2023-01-26T03:22:11.968Z,0.00
2023-01-26T03:23:11.957Z,0.00
2023-01-26T03:24:12.030Z,0.00
2023-01-26T03:25:11.939Z,0.00
2023-01-26T03:26:11.934Z,0.00
2023-01-26T03:27:11.917Z,0.00
2023-01-26T03:28:11.908Z,0.00
2023-01-26T03:29:11.916Z,0.00
2023-01-26T03:30:12.253Z,0.00
2023-01-26T03:31:11.952Z,0.00
2023-01-26T03:32:11.863Z,0.00
2023-01-26T03:33:11.864Z,0.00
2023-01-26T03:34:11.847Z,0.00
2023-01-26T03:35:11.837Z,0.00
2023-01-26T03:36:11.874Z,0.00
2023-01-26T03:37:11.813Z,0.00
2023-01-26T03:38:11.810Z,0.00
2023-01-26T03:39:11.793Z,0.00
2023-01-26T03:40:12.143Z,0.00
2023-01-26T03:41:11.784Z,0.00
2023-01-26T03:42:11.773Z,0.00
2023-01-26T03:43:11.854Z,0.00
2023-01-26T03:44:11.744Z,0.00
2023-01-26T03:45:11.755Z,0.00
2023-01-26T03:46:11.722Z,0.00
2023-01-26T03:47:11.713Z,0.00
2023-01-26T03:48:11.750Z,0.00
2023-01-26T03:49:11.688Z,0.00
2023-01-26T03:50:12.319Z,0.00
2023-01-26T03:51:11.689Z,0.00
2023-01-26T03:52:11.676Z,0.00
2023-01-26T03:53:11.848Z,0.00
2023-01-26T03:54:11.639Z,0.00
2023-01-26T03:55:11.633Z,0.00
2023-01-26T03:56:11.619Z,0.00
2023-01-26T03:57:11.607Z,0.00
2023-01-26T03:58:11.596Z,0.00
2023-01-26T03:59:11.591Z,0.00
2023-01-26T04:00:11.927Z,0.00
2023-01-26T04:01:11.586Z,0.00
2023-01-26T04:02:11.609Z,0.00
2023-01-26T04:03:11.546Z,0.00
2023-01-26T04:04:11.539Z,0.00
2023-01-26T04:05:11.524Z,0.00
2023-01-26T04:06:16.068Z,0.00
2023-01-26T04:07:11.511Z,0.00
2023-01-26T04:08:11.503Z,0.00
2023-01-26T04:09:11.484Z,0.00
2023-01-26T04:10:11.841Z,0.00
2023-01-26T04:11:11.464Z,0.00
2023-01-26T04:12:11.455Z,0.00
2023-01-26T04:13:11.447Z,0.00
2023-01-26T04:14:11.438Z,0.00
2023-01-26T04:15:11.422Z,0.00
2023-01-26T04:16:11.582Z,0.00
2023-01-26T04:17:11.452Z,0.00
2023-01-26T04:18:11.392Z,0.00
2023-01-26T04:19:11.398Z,0.00
2023-01-26T04:20:11.627Z,0.00
2023-01-26T04:21:11.370Z,0.00
2023-01-26T04:22:11.348Z,0.00
2023-01-26T04:23:11.344Z,0.00
2023-01-26T04:24:11.440Z,0.00
2023-01-26T04:25:11.319Z,0.00
2023-01-26T04:26:11.326Z,0.00
2023-01-26T04:27:11.303Z,0.00
2023-01-26T04:28:11.288Z,0.00
2023-01-26T04:29:11.292Z,0.00
2023-01-26T04:30:11.579Z,0.00
2023-01-26T04:31:11.291Z,0.00
2023-01-26T04:32:11.259Z,0.00
2023-01-26T04:33:11.262Z,0.00
2023-01-26T04:34:11.225Z,0.00
2023-01-26T04:35:11.220Z,0.00
2023-01-26T04:36:11.210Z,0.00
2023-01-26T04:37:11.214Z,0.00
2023-01-26T04:38:11.184Z,0.00
2023-01-26T04:39:11.185Z,0.00
2023-01-26T04:40:11.510Z,0.00
2023-01-26T04:41:11.156Z,0.00
2023-01-26T04:42:11.159Z,0.00
2023-01-26T04:43:11.138Z,0.00
2023-01-26T04:44:11.132Z,0.00
2023-01-26T04:45:11.140Z,0.00
2023-01-26T04:46:11.216Z,0.00
2023-01-26T04:47:11.106Z,0.00
2023-01-26T04:48:11.090Z,0.00
2023-01-26T04:49:11.125Z,0.00
2023-01-26T04:50:11.419Z,0.00
2023-01-26T04:51:11.053Z,0.00
2023-01-26T04:52:11.044Z,0.00
2023-01-26T04:53:11.032Z,0.00
2023-01-26T04:54:11.023Z,0.00
2023-01-26T04:55:11.033Z,0.00
2023-01-26T04:56:11.154Z,0.00
2023-01-26T04:57:10.993Z,0.00
2023-01-26T04:58:10.981Z,0.00
2023-01-26T04:59:10.972Z,0.00
2023-01-26T05:00:11.369Z,0.00
2023-01-26T05:01:11.023Z,0.00
2023-01-26T05:02:10.941Z,0.00
2023-01-26T05:03:10.926Z,0.00
2023-01-26T05:04:10.963Z,0.00
2023-01-26T05:05:10.952Z,0.00
2023-01-26T05:06:10.948Z,0.00
2023-01-26T05:07:10.890Z,0.00
2023-01-26T05:08:10.881Z,0.00
2023-01-26T05:09:10.869Z,0.00
2023-01-26T05:10:13.277Z,0.00
2023-01-26T05:11:10.851Z,0.00
2023-01-26T05:12:10.835Z,0.00
2023-01-26T05:13:10.828Z,0.00
2023-01-26T05:14:10.826Z,0.00
2023-01-26T05:15:10.817Z,0.00
2023-01-26T05:16:10.874Z,0.00
2023-01-26T05:17:10.786Z,0.00
2023-01-26T05:18:10.791Z,0.00
2023-01-26T05:19:10.769Z,0.00
2023-01-26T05:20:11.078Z,0.00
2023-01-26T05:21:10.767Z,0.00
2023-01-26T05:22:12.489Z,0.00
2023-01-26T05:23:10.726Z,0.00
2023-01-26T05:24:10.767Z,0.00
2023-01-26T05:25:10.715Z,0.00
2023-01-26T05:26:10.724Z,0.00
2023-01-26T05:27:10.736Z,0.00
2023-01-26T05:28:10.679Z,0.00
2023-01-26T05:29:10.660Z,0.00
2023-01-26T05:30:14.168Z,0.00
2023-01-26T05:31:10.640Z,0.00
2023-01-26T05:32:10.634Z,0.00
2023-01-26T05:33:10.629Z,0.00
2023-01-26T05:34:10.611Z,0.00
2023-01-26T05:35:10.598Z,0.00
2023-01-26T05:36:10.593Z,0.00
2023-01-26T05:37:12.088Z,0.00
2023-01-26T05:38:10.575Z,0.00
2023-01-26T05:39:10.559Z,0.00
2023-01-26T05:40:10.998Z,0.00
2023-01-26T05:41:10.549Z,0.00
2023-01-26T05:42:10.529Z,0.00
2023-01-26T05:43:10.520Z,0.00
2023-01-26T05:44:10.681Z,0.00
2023-01-26T05:45:10.496Z,0.00
2023-01-26T05:46:10.581Z,0.00
2023-01-26T05:47:10.483Z,0.00
2023-01-26T05:48:10.469Z,0.00
2023-01-26T05:49:10.459Z,0.00
2023-01-26T05:50:10.825Z,0.00
2023-01-26T05:51:10.437Z,0.00
2023-01-26T05:52:10.429Z,0.00
2023-01-26T05:53:10.441Z,0.00
2023-01-26T05:54:10.412Z,0.00
2023-01-26T05:55:10.417Z,0.00
2023-01-26T05:56:10.383Z,0.00
2023-01-26T05:57:10.377Z,0.00
2023-01-26T05:58:10.362Z,0.00
2023-01-26T05:59:10.358Z,0.00
2023-01-26T06:00:10.869Z,0.00
2023-01-26T06:01:10.335Z,0.00
2023-01-26T06:02:10.354Z,0.00
2023-01-26T06:03:10.317Z,0.00
2023-01-26T06:04:10.314Z,0.00
2023-01-26T06:05:10.296Z,0.00
2023-01-26T06:06:10.285Z,0.00
2023-01-26T06:07:10.274Z,0.00
2023-01-26T06:08:10.262Z,0.00
2023-01-26T06:09:10.271Z,0.00
2023-01-26T06:10:10.661Z,0.00
2023-01-26T06:11:10.231Z,0.00
2023-01-26T06:12:10.219Z,0.00
2023-01-26T06:13:10.209Z,0.00
2023-01-26T06:14:10.203Z,0.00
2023-01-26T06:15:10.187Z,0.00
2023-01-26T06:16:10.179Z,0.00
2023-01-26T06:17:10.173Z,0.00
2023-01-26T06:18:10.178Z,0.00
2023-01-26T06:19:10.150Z,0.00
2023-01-26T06:20:10.677Z,0.00
2023-01-26T06:21:10.131Z,0.00
2023-01-26T06:22:10.131Z,0.00
2023-01-26T06:23:10.109Z,0.00
2023-01-26T06:24:10.156Z,0.00
2023-01-26T06:25:10.141Z,0.00
2023-01-26T06:26:11.015Z,0.00
2023-01-26T06:27:10.075Z,0.00
2023-01-26T06:28:10.057Z,0.00
2023-01-26T06:29:10.047Z,0.00
2023-01-26T06:30:10.418Z,0.00
2023-01-26T06:31:10.172Z,0.00
2023-01-26T06:32:10.015Z,0.00
2023-01-26T06:33:10.005Z,0.00
2023-01-26T06:34:09.999Z,0.00
2023-01-26T06:35:09.989Z,0.00
2023-01-26T06:36:10.075Z,0.00
2023-01-26T06:37:09.971Z,0.00
2023-01-26T06:38:09.953Z,0.00
2023-01-26T06:39:09.942Z,0.00
2023-01-26T06:40:10.257Z,0.00
2023-01-26T06:41:09.947Z,0.00
2023-01-26T06:42:09.914Z,0.00
2023-01-26T06:43:10.010Z,0.00
2023-01-26T06:44:09.896Z,0.00
2023-01-26T06:45:10.425Z,0.00
2023-01-26T06:46:09.932Z,0.00
2023-01-26T06:47:09.888Z,0.00
2023-01-26T06:48:09.852Z,0.00
2023-01-26T06:49:09.849Z,0.00
2023-01-26T06:50:10.230Z,0.00
2023-01-26T06:51:09.831Z,0.00
2023-01-26T06:52:09.808Z,0.00
2023-01-26T06:53:09.799Z,0.00
2023-01-26T06:54:09.790Z,0.00
2023-01-26T06:55:09.780Z,0.00
2023-01-26T06:56:09.777Z,0.00
2023-01-26T06:57:09.788Z,0.00
2023-01-26T06:58:09.751Z,0.00
2023-01-26T06:59:09.741Z,0.00
2023-01-26T07:00:10.203Z,0.00
2023-01-26T07:01:09.802Z,5.62
2023-01-26T07:02:09.756Z,5.62
2023-01-26T07:03:09.697Z,5.62
2023-01-26T07:04:09.693Z,5.62
2023-01-26T07:05:11.111Z,5.62
2023-01-26T07:06:09.663Z,5.62
2023-01-26T07:07:09.657Z,5.62
2023-01-26T07:08:09.649Z,5.62
2023-01-26T07:09:09.633Z,5.62
2023-01-26T07:10:10.019Z,5.62
2023-01-26T07:11:09.618Z,5.62
2023-01-26T07:12:09.642Z,5.62
2023-01-26T07:13:09.622Z,11.25
2023-01-26T07:14:09.583Z,11.25
2023-01-26T07:15:09.577Z,11.25
2023-01-26T07:16:09.584Z,11.25
2023-01-26T07:17:09.556Z,11.25
2023-01-26T07:18:09.544Z,11.25
2023-01-26T07:19:09.534Z,11.25
2023-01-26T07:20:09.787Z,11.25
2023-01-26T07:21:09.513Z,11.25
2023-01-26T07:22:09.516Z,16.87
2023-01-26T07:23:09.493Z,16.87
2023-01-26T07:24:09.533Z,16.87
2023-01-26T07:25:09.487Z,16.87
2023-01-26T07:26:09.462Z,16.87
2023-01-26T07:27:09.452Z,16.87
2023-01-26T07:28:09.439Z,16.87
2023-01-26T07:29:09.511Z,16.87
2023-01-26T07:30:09.861Z,16.87
2023-01-26T07:31:09.532Z,16.87
2023-01-26T07:32:09.400Z,16.87
2023-01-26T07:33:09.389Z,16.87
2023-01-26T07:34:09.386Z,16.87
2023-01-26T07:35:09.372Z,16.87
2023-01-26T07:36:09.359Z,22.50
2023-01-26T07:37:09.350Z,22.50
2023-01-26T07:38:09.345Z,22.50
2023-01-26T07:39:09.328Z,28.12
2023-01-26T07:40:09.586Z,28.12
2023-01-26T07:41:09.317Z,28.12
2023-01-26T07:42:09.296Z,28.12
2023-01-26T07:43:09.292Z,28.12
2023-01-26T07:44:09.332Z,28.12
2023-01-26T07:45:09.294Z,28.12
2023-01-26T07:46:09.277Z,28.12
2023-01-26T07:47:09.243Z,28.12
2023-01-26T07:48:09.237Z,33.75
2023-01-26T07:49:09.225Z,33.75
2023-01-26T07:50:09.535Z,33.75
2023-01-26T07:51:09.352Z,33.75
2023-01-26T07:52:09.239Z,33.75
2023-01-26T07:53:09.179Z,33.75
2023-01-26T07:54:09.169Z,33.75
2023-01-26T07:55:09.171Z,39.37
2023-01-26T07:56:09.148Z,39.37
2023-01-26T07:57:09.139Z,39.37
2023-01-26T07:58:09.131Z,39.37
2023-01-26T07:59:09.124Z,39.37
2023-01-26T08:00:09.510Z,45.00
2023-01-26T08:01:09.147Z,45.00
2023-01-26T08:02:09.091Z,45.00
2023-01-26T08:03:09.140Z,45.00
2023-01-26T08:04:09.072Z,50.62
2023-01-26T08:05:09.059Z,50.62
2023-01-26T08:06:11.954Z,50.62
2023-01-26T08:07:09.049Z,50.62
2023-01-26T08:08:09.028Z,56.25
2023-01-26T08:09:09.016Z,56.25
2023-01-26T08:10:09.476Z,56.25
2023-01-26T08:11:09.000Z,56.25
2023-01-26T08:12:08.986Z,56.25
2023-01-26T08:13:08.973Z,56.25
2023-01-26T08:14:08.965Z,56.25
2023-01-26T08:15:08.952Z,61.87
2023-01-26T08:16:08.987Z,61.87
2023-01-26T08:17:08.973Z,61.87
2023-01-26T08:18:08.923Z,61.87
2023-01-26T08:19:08.910Z,61.87
2023-01-26T08:20:09.267Z,67.50
2023-01-26T08:21:08.888Z,67.50
2023-01-26T08:22:08.892Z,67.50
2023-01-26T08:23:08.873Z,73.12
2023-01-26T08:24:08.930Z,73.12
2023-01-26T08:25:08.846Z,73.12
2023-01-26T08:26:08.941Z,73.12
2023-01-26T08:27:08.828Z,78.75
2023-01-26T08:28:08.816Z,78.75
2023-01-26T08:29:08.807Z,84.37
2023-01-26T08:30:09.106Z,84.37
2023-01-26T08:31:08.917Z,84.37
2023-01-26T08:32:08.869Z,84.37
2023-01-26T08:33:08.788Z,90.00
2023-01-26T08:34:08.757Z,90.00
2023-01-26T08:35:08.760Z,90.00
2023-01-26T08:36:08.739Z,90.00
2023-01-26T08:37:08.728Z,90.00
2023-01-26T08:38:08.719Z,90.00
2023-01-26T08:39:08.709Z,95.62
2023-01-26T08:40:08.699Z,95.62
2023-01-26T08:41:08.686Z,95.62
2023-01-26T08:42:08.679Z,101.25
2023-01-26T08:43:08.673Z,101.25
2023-01-26T08:44:08.654Z,101.25
2023-01-26T08:45:08.648Z,101.25
2023-01-26T08:46:08.696Z,101.25
2023-01-26T08:47:08.619Z,101.25
2023-01-26T08:48:08.613Z,101.25
2023-01-26T08:49:08.632Z,101.25
2023-01-26T08:50:08.607Z,101.25
2023-01-26T08:51:08.616Z,101.25
2023-01-26T08:52:08.576Z,101.25
2023-01-26T08:53:08.588Z,101.25
2023-01-26T08:54:08.552Z,101.25
2023-01-26T08:55:08.545Z,106.87
2023-01-26T08:56:08.532Z,106.87
2023-01-26T08:57:08.521Z,106.87
2023-01-26T08:58:08.518Z,101.25
2023-01-26T08:59:08.508Z,101.25
2023-01-26T09:00:09.022Z,101.25
2023-01-26T09:01:08.532Z,101.25
2023-01-26T09:02:08.571Z,106.87
2023-01-26T09:03:08.594Z,106.87
2023-01-26T09:04:08.452Z,106.87
2023-01-26T09:05:08.464Z,112.50
2023-01-26T09:06:08.430Z,118.12
2023-01-26T09:07:08.422Z,118.12
2023-01-26T09:08:08.419Z,123.75
2023-01-26T09:09:08.399Z,129.37
2023-01-26T09:10:08.516Z,129.37
2023-01-26T09:11:08.385Z,129.37
2023-01-26T09:12:08.370Z,129.37
2023-01-26T09:13:08.362Z,135.00
2023-01-26T09:14:08.349Z,135.00
2023-01-26T09:15:08.337Z,140.62
2023-01-26T09:16:08.329Z,146.25
2023-01-26T09:17:08.316Z,151.87
2023-01-26T09:18:08.310Z,163.12
2023-01-26T09:19:08.296Z,168.75
2023-01-26T09:20:08.363Z,174.37
2023-01-26T09:21:08.301Z,185.62
2023-01-26T09:22:08.263Z,191.25
2023-01-26T09:23:08.254Z,196.87
2023-01-26T09:24:08.316Z,202.50
2023-01-26T09:25:08.250Z,208.12
2023-01-26T09:26:08.225Z,219.37
2023-01-26T09:27:08.226Z,225.00
2023-01-26T09:28:08.200Z,230.62
2023-01-26T09:29:08.192Z,236.25
2023-01-26T09:30:08.200Z,241.87
2023-01-26T09:31:08.304Z,247.50
2023-01-26T09:32:08.173Z,258.75
2023-01-26T09:33:08.146Z,270.00
2023-01-26T09:34:08.139Z,275.62
2023-01-26T09:35:08.124Z,270.00
2023-01-26T09:36:08.116Z,264.37
2023-01-26T09:37:08.151Z,264.37
2023-01-26T09:38:08.105Z,270.00
2023-01-26T09:39:08.087Z,275.62
2023-01-26T09:40:08.072Z,281.25
2023-01-26T09:41:08.077Z,292.50
2023-01-26T09:42:09.687Z,309.37
2023-01-26T09:43:08.043Z,320.62
2023-01-26T09:44:08.027Z,354.37
2023-01-26T09:45:08.038Z,354.37
2023-01-26T09:46:08.065Z,354.37
2023-01-26T09:47:08.009Z,354.37
2023-01-26T09:48:07.997Z,365.62
2023-01-26T09:49:07.983Z,365.62
2023-01-26T09:50:07.969Z,371.25
2023-01-26T09:51:07.963Z,376.87
2023-01-26T09:52:07.948Z,382.50
2023-01-26T09:53:07.968Z,388.12
2023-01-26T09:54:07.928Z,393.75
2023-01-26T09:55:07.924Z,399.37
2023-01-26T09:56:07.910Z,410.62
2023-01-26T09:57:07.897Z,416.25
2023-01-26T09:58:07.912Z,416.25
2023-01-26T09:59:07.879Z,421.87
2023-01-26T10:00:07.868Z,427.50
2023-01-26T10:01:07.887Z,427.50
2023-01-26T10:02:07.843Z,427.50
2023-01-26T10:03:07.833Z,444.37
2023-01-26T10:04:07.824Z,455.62
2023-01-26T10:05:07.818Z,461.25
2023-01-26T10:06:07.812Z,472.50
2023-01-26T10:07:07.794Z,483.75
2023-01-26T10:08:07.793Z,483.75
2023-01-26T10:09:07.794Z,478.12
2023-01-26T10:10:07.760Z,472.50
2023-01-26T10:11:07.754Z,472.50
2023-01-26T10:12:07.754Z,466.87
2023-01-26T10:13:07.724Z,466.87
2023-01-26T10:14:07.719Z,472.50
2023-01-26T10:15:07.710Z,478.12
2023-01-26T10:16:07.807Z,489.37
2023-01-26T10:17:07.687Z,500.62
2023-01-26T10:18:07.681Z,528.75
2023-01-26T10:19:07.662Z,613.12
2023-01-26T10:20:07.663Z,646.87
2023-01-26T10:21:07.641Z,545.62
2023-01-26T10:22:07.643Z,511.87
2023-01-26T10:23:07.625Z,517.50
2023-01-26T10:24:07.697Z,489.37
2023-01-26T10:25:07.622Z,517.50
2023-01-26T10:26:07.593Z,534.37
2023-01-26T10:27:07.582Z,534.37
2023-01-26T10:28:07.572Z,483.75
2023-01-26T10:29:07.557Z,466.87
2023-01-26T10:30:07.546Z,511.87
2023-01-26T10:31:07.699Z,438.75
2023-01-26T10:32:07.530Z,421.87
2023-01-26T10:33:07.516Z,427.50
2023-01-26T10:34:07.511Z,433.12
2023-01-26T10:35:07.497Z,444.37
2023-01-26T10:36:07.482Z,461.25
2023-01-26T10:37:07.472Z,472.50
2023-01-26T10:38:07.462Z,478.12
2023-01-26T10:39:07.530Z,489.37
2023-01-26T10:40:07.477Z,506.25
2023-01-26T10:41:07.468Z,478.12
2023-01-26T10:42:07.421Z,461.25
2023-01-26T10:43:07.422Z,444.37
2023-01-26T10:44:07.404Z,438.75
2023-01-26T10:45:07.389Z,416.25
2023-01-26T10:46:07.392Z,399.37
2023-01-26T10:47:07.370Z,376.87
2023-01-26T10:48:07.363Z,360.00
2023-01-26T10:49:07.350Z,354.37
2023-01-26T10:50:07.335Z,360.00
2023-01-26T10:51:07.327Z,376.87
2023-01-26T10:52:07.325Z,365.62
2023-01-26T10:53:07.336Z,343.12
2023-01-26T10:54:07.302Z,337.50
2023-01-26T10:55:07.283Z,326.25
2023-01-26T10:56:07.299Z,309.37
2023-01-26T10:57:07.293Z,298.12
2023-01-26T10:58:07.251Z,298.12
2023-01-26T10:59:07.241Z,303.75
2023-01-26T11:00:07.235Z,320.62
2023-01-26T11:01:07.223Z,331.87
2023-01-26T11:02:07.211Z,337.50
2023-01-26T11:03:07.236Z,337.50
2023-01-26T11:04:07.194Z,331.87
2023-01-26T11:05:07.183Z,326.25
2023-01-26T11:06:07.170Z,331.87
2023-01-26T11:07:07.160Z,331.87
2023-01-26T11:08:07.151Z,337.50
2023-01-26T11:09:07.136Z,343.12
2023-01-26T11:10:07.125Z,348.75
2023-01-26T11:11:07.120Z,354.37
2023-01-26T11:12:07.108Z,343.12
2023-01-26T11:13:07.128Z,326.25
2023-01-26T11:14:07.087Z,315.00
2023-01-26T11:15:07.075Z,298.12
2023-01-26T11:16:07.148Z,275.62
2023-01-26T11:17:07.057Z,264.37
2023-01-26T11:18:07.047Z,247.50
2023-01-26T11:19:07.033Z,241.87
2023-01-26T11:20:07.026Z,236.25
2023-01-26T11:21:07.013Z,236.25
2023-01-26T11:22:07.003Z,230.62
2023-01-26T11:23:06.993Z,225.00
2023-01-26T11:24:07.001Z,219.37
2023-01-26T11:25:06.973Z,213.75
2023-01-26T11:26:06.959Z,208.12
2023-01-26T11:27:06.952Z,208.12
2023-01-26T11:28:06.940Z,208.12
2023-01-26T11:29:06.955Z,208.12
2023-01-26T11:30:06.920Z,208.12
2023-01-26T11:31:07.069Z,208.12
2023-01-26T11:32:07.021Z,208.12
2023-01-26T11:33:06.889Z,202.50
2023-01-26T11:34:06.879Z,191.25
2023-01-26T11:35:06.870Z,185.62
2023-01-26T11:36:06.859Z,180.00
2023-01-26T11:37:06.849Z,174.37
2023-01-26T11:38:06.838Z,174.37
2023-01-26T11:39:06.830Z,174.37
2023-01-26T11:40:06.818Z,174.37
2023-01-26T11:41:06.812Z,174.37
2023-01-26T11:42:06.797Z,168.75
2023-01-26T11:43:06.789Z,168.75
2023-01-26T11:44:06.772Z,168.75
2023-01-26T11:45:06.787Z,168.75
2023-01-26T11:46:06.827Z,168.75
2023-01-26T11:47:06.751Z,168.75
2023-01-26T11:48:06.734Z,174.37
2023-01-26T11:49:06.724Z,174.37
2023-01-26T11:50:06.716Z,180.00
2023-01-26T11:51:06.702Z,180.00
2023-01-26T11:52:06.688Z,180.00
2023-01-26T11:53:06.677Z,180.00
2023-01-26T11:54:06.669Z,180.00
2023-01-26T11:55:06.667Z,174.37
2023-01-26T11:56:06.651Z,168.75
2023-01-26T11:57:06.639Z,168.75
2023-01-26T11:58:06.628Z,163.12
2023-01-26T11:59:06.628Z,163.12
2023-01-26T12:00:08.140Z,163.12
2023-01-26T12:01:06.625Z,163.12
2023-01-26T12:02:06.639Z,163.12
2023-01-26T12:03:06.615Z,163.12
2023-01-26T12:04:06.568Z,163.12
2023-01-26T12:05:06.551Z,168.75
2023-01-26T12:06:06.545Z,168.75
2023-01-26T12:07:06.532Z,168.75
2023-01-26T12:08:06.520Z,168.75
2023-01-26T12:09:06.510Z,163.12
2023-01-26T12:10:06.502Z,163.12
2023-01-26T12:11:06.498Z,163.12
2023-01-26T12:12:06.479Z,157.50
2023-01-26T12:13:06.478Z,163.12
2023-01-26T12:14:06.460Z,163.12
2023-01-26T12:15:06.466Z,163.12
2023-01-26T12:16:06.445Z,163.12
2023-01-26T12:17:17.747Z,163.12
2023-01-26T12:18:07.445Z,163.12
2023-01-26T12:19:11.019Z,168.75
2023-01-26T12:20:06.398Z,174.37
2023-01-26T12:21:06.389Z,196.87
2023-01-26T12:22:06.420Z,219.37
2023-01-26T12:23:06.387Z,236.25
2023-01-26T12:24:06.414Z,258.75
2023-01-26T12:25:19.119Z,275.62
2023-01-26T12:26:07.361Z,292.50
2023-01-26T12:27:06.325Z,309.37
2023-01-26T12:28:06.315Z,331.87
2023-01-26T12:29:08.336Z,438.75
2023-01-26T12:30:06.291Z,393.75
2023-01-26T12:31:06.430Z,388.12
2023-01-26T12:32:06.269Z,371.25
2023-01-26T12:33:06.285Z,354.37
2023-01-26T12:34:06.253Z,371.25
2023-01-26T12:35:06.242Z,376.87
2023-01-26T12:36:06.238Z,506.25
2023-01-26T12:37:06.219Z,376.87
2023-01-26T12:38:17.587Z,382.50
2023-01-26T12:39:07.241Z,399.37
2023-01-26T12:40:06.185Z,444.37
2023-01-26T12:41:06.201Z,450.00
2023-01-26T12:42:06.166Z,483.75
2023-01-26T12:43:06.157Z,506.25
2023-01-26T12:44:06.149Z,545.62
2023-01-26T12:45:06.135Z,714.37
2023-01-26T12:46:06.214Z,894.37
2023-01-26T12:47:06.114Z,691.87
2023-01-26T12:48:06.103Z,646.87
2023-01-26T12:49:06.123Z,658.12
2023-01-26T12:50:06.178Z,691.87
2023-01-26T12:51:06.075Z,961.87
2023-01-26T12:52:06.063Z,1333.12
2023-01-26T12:53:06.061Z,759.37
2023-01-26T12:54:06.047Z,753.75
2023-01-26T12:55:06.045Z,815.62
2023-01-26T12:56:06.019Z,894.37
2023-01-26T12:57:06.011Z,1018.12
2023-01-26T12:58:06.003Z,1068.75